Aérodrome :
LOGIN :

S'inscrire | Disclaimer

   EN    FR    IT 

 










Légende :    VFR   VFR Marginal   IFR   IFR Intensif   IFR Très Intensif
Visi : 
Plafond : 
>= 8 km
>= 3000ft
5 à 8 km
1000 à 3000 ft
1500m à 5 km
500 à 1000 ft
800 à 1500m
200 à 500 ft
< 800m
< 200 ft
Symboles :   Orages  Brouillard  Fortes neiges  Fortes précipitations  Vent > 20 kt
SIGMETs :   Divers  Orages  Givrage  Turbulence  Onde Orograph.  Cendres Volcan.







- Altitude de l'aérodrome : 297 ft


EGVP - Middle Wallop

DERNIER METAR :
  • 171350Z 27010KT 9999 FEW040 SCT050 20/10 Q1020 BLU NOSIG

METARs EXPIRÉS :
  • 171250Z 24009KT 9999 FEW038 BKN050 20/10 Q1021 BLU NOSIG
  • 171150Z 27008KT 9999 FEW039 BKN050 19/09 Q1021 BLU NOSIG

TAF TAF EGVP
Valide du 17 à 12h jusqu'au 17 à 17h UTC


171038Z 1712/1717 28010KT 9999 BKN045
ATIS : +44 1980 674 142
Pas de NOTAMs connus pour ce terrain.



MET'MAP, la Météo Aéronautique d'un coup d'oeil ! - Copyright ORBIFLY Décembre 2007 - Disclaimer

ORBIFLY MET'MAP TEAM :

Programmation & Développement : Alexandra Zaïnal
Conception & Développement : Baudouin d'Aumeries
Co-Programmation & Développement : Marc-Olivier Méhu
Soutien technique & logistique : Manuel Goepfert

Contact : metmap@orbifly.com




SOURCES & CREDITS :

   NOAA